sensor_id;sensor_type;location;lat;lon;timestamp;P1;durP1;ratioP1;P2;durP2;ratioP2
9140;SDS011;46330;50.822;7.126;2023-11-21T00:00:04;7.43;;;2.95;;
9140;SDS011;46330;50.822;7.126;2023-11-21T00:02:39;5.80;;;2.85;;
9140;SDS011;46330;50.822;7.126;2023-11-21T00:05:07;6.43;;;3.20;;
9140;SDS011;46330;50.822;7.126;2023-11-21T00:07:36;7.85;;;3.00;;
9140;SDS011;46330;50.822;7.126;2023-11-21T00:10:06;6.25;;;3.03;;
9140;SDS011;46330;50.822;7.126;2023-11-21T00:12:37;6.97;;;3.70;;
9140;SDS011;46330;50.822;7.126;2023-11-21T00:15:05;9.13;;;3.58;;
9140;SDS011;46330;50.822;7.126;2023-11-21T00:17:36;6.75;;;3.83;;
9140;SDS011;46330;50.822;7.126;2023-11-21T00:20:05;6.60;;;3.40;;
9140;SDS011;46330;50.822;7.126;2023-11-21T00:22:34;9.82;;;3.80;;
9140;SDS011;46330;50.822;7.126;2023-11-21T00:25:02;5.72;;;3.47;;
9140;SDS011;46330;50.822;7.126;2023-11-21T00:27:32;5.32;;;3.50;;
9140;SDS011;46330;50.822;7.126;2023-11-21T00:30:01;9.55;;;4.07;;
9140;SDS011;46330;50.822;7.126;2023-11-21T00:32:32;7.13;;;3.88;;
9140;SDS011;46330;50.822;7.126;2023-11-21T00:35:00;6.45;;;3.80;;
9140;SDS011;46330;50.822;7.126;2023-11-21T00:37:28;8.45;;;4.32;;
9140;SDS011;46330;50.822;7.126;2023-11-21T00:39:58;6.57;;;3.97;;
9140;SDS011;46330;50.822;7.126;2023-11-21T00:42:27;8.88;;;4.20;;
9140;SDS011;46330;50.822;7.126;2023-11-21T00:44:56;8.98;;;4.57;;
9140;SDS011;46330;50.822;7.126;2023-11-21T00:47:24;6.63;;;4.18;;
9140;SDS011;46330;50.822;7.126;2023-11-21T00:49:52;7.32;;;4.60;;
9140;SDS011;46330;50.822;7.126;2023-11-21T00:52:20;9.82;;;4.80;;
9140;SDS011;46330;50.822;7.126;2023-11-21T00:54:48;10.43;;;4.78;;
9140;SDS011;46330;50.822;7.126;2023-11-21T00:57:16;15.23;;;5.30;;
9140;SDS011;46330;50.822;7.126;2023-11-21T00:59:44;9.82;;;5.35;;
9140;SDS011;46330;50.822;7.126;2023-11-21T01:02:14;11.52;;;5.32;;
9140;SDS011;46330;50.822;7.126;2023-11-21T01:04:42;10.65;;;5.75;;
9140;SDS011;46330;50.822;7.126;2023-11-21T01:07:10;9.35;;;5.40;;
9140;SDS011;46330;50.822;7.126;2023-11-21T01:09:38;12.55;;;5.95;;
9140;SDS011;46330;50.822;7.126;2023-11-21T01:12:06;8.07;;;5.55;;
9140;SDS011;46330;50.822;7.126;2023-11-21T01:14:35;12.10;;;6.45;;
9140;SDS011;46330;50.822;7.126;2023-11-21T01:17:04;9.85;;;6.18;;
9140;SDS011;46330;50.822;7.126;2023-11-21T01:19:34;9.20;;;6.03;;
9140;SDS011;46330;50.822;7.126;2023-11-21T01:22:02;15.82;;;6.63;;
9140;SDS011;46330;50.822;7.126;2023-11-21T01:24:31;10.82;;;6.18;;
9140;SDS011;46330;50.822;7.126;2023-11-21T01:26:59;11.82;;;6.18;;
9140;SDS011;46330;50.822;7.126;2023-11-21T01:29:27;11.38;;;6.60;;
9140;SDS011;46330;50.822;7.126;2023-11-21T01:31:55;11.57;;;6.30;;
9140;SDS011;46330;50.822;7.126;2023-11-21T01:34:23;10.18;;;5.88;;
9140;SDS011;46330;50.822;7.126;2023-11-21T01:36:54;12.20;;;5.43;;
9140;SDS011;46330;50.822;7.126;2023-11-21T01:39:22;12.27;;;5.68;;
9140;SDS011;46330;50.822;7.126;2023-11-21T01:41:51;11.65;;;5.53;;
9140;SDS011;46330;50.822;7.126;2023-11-21T01:44:19;11.07;;;5.70;;
9140;SDS011;46330;50.822;7.126;2023-11-21T01:46:47;11.70;;;5.90;;
9140;SDS011;46330;50.822;7.126;2023-11-21T01:49:16;11.88;;;6.18;;
9140;SDS011;46330;50.822;7.126;2023-11-21T01:51:45;10.38;;;6.25;;
9140;SDS011;46330;50.822;7.126;2023-11-21T01:54:17;14.32;;;5.85;;
9140;SDS011;46330;50.822;7.126;2023-11-21T01:56:48;10.88;;;5.85;;
9140;SDS011;46330;50.822;7.126;2023-11-21T01:59:17;11.43;;;5.90;;
9140;SDS011;46330;50.822;7.126;2023-11-21T02:01:48;11.82;;;6.20;;
9140;SDS011;46330;50.822;7.126;2023-11-21T02:04:18;13.93;;;6.70;;
9140;SDS011;46330;50.822;7.126;2023-11-21T02:06:46;10.10;;;6.40;;
9140;SDS011;46330;50.822;7.126;2023-11-21T02:09:14;13.70;;;7.07;;
9140;SDS011;46330;50.822;7.126;2023-11-21T02:11:45;16.13;;;6.78;;
9140;SDS011;46330;50.822;7.126;2023-11-21T02:14:13;14.75;;;7.05;;
9140;SDS011;46330;50.822;7.126;2023-11-21T02:16:41;12.48;;;7.18;;
9140;SDS011;46330;50.822;7.126;2023-11-21T02:19:14;12.82;;;7.00;;
9140;SDS011;46330;50.822;7.126;2023-11-21T02:21:46;14.30;;;7.65;;
9140;SDS011;46330;50.822;7.126;2023-11-21T02:24:17;11.75;;;6.93;;
9140;SDS011;46330;50.822;7.126;2023-11-21T02:26:46;13.40;;;6.68;;
9140;SDS011;46330;50.822;7.126;2023-11-21T02:29:14;16.33;;;7.22;;
9140;SDS011;46330;50.822;7.126;2023-11-21T02:31:45;13.48;;;7.78;;
9140;SDS011;46330;50.822;7.126;2023-11-21T02:34:15;13.70;;;7.63;;
9140;SDS011;46330;50.822;7.126;2023-11-21T02:36:43;10.70;;;7.22;;
9140;SDS011;46330;50.822;7.126;2023-11-21T02:39:11;19.42;;;7.65;;
9140;SDS011;46330;50.822;7.126;2023-11-21T02:41:41;14.10;;;7.07;;
9140;SDS011;46330;50.822;7.126;2023-11-21T02:44:10;12.93;;;6.85;;
9140;SDS011;46330;50.822;7.126;2023-11-21T02:46:38;20.00;;;8.20;;
9140;SDS011;46330;50.822;7.126;2023-11-21T02:49:06;13.65;;;7.15;;
9140;SDS011;46330;50.822;7.126;2023-11-21T02:51:36;15.50;;;7.32;;
9140;SDS011;46330;50.822;7.126;2023-11-21T02:54:05;11.73;;;6.82;;
9140;SDS011;46330;50.822;7.126;2023-11-21T02:56:45;15.18;;;7.57;;
9140;SDS011;46330;50.822;7.126;2023-11-21T02:59:13;13.02;;;7.10;;
9140;SDS011;46330;50.822;7.126;2023-11-21T03:01:42;15.40;;;7.20;;
9140;SDS011;46330;50.822;7.126;2023-11-21T03:04:10;15.02;;;7.18;;
9140;SDS011;46330;50.822;7.126;2023-11-21T03:06:45;11.88;;;6.90;;
9140;SDS011;46330;50.822;7.126;2023-11-21T03:09:14;13.55;;;7.13;;
9140;SDS011;46330;50.822;7.126;2023-11-21T03:11:42;13.73;;;6.75;;
9140;SDS011;46330;50.822;7.126;2023-11-21T03:14:12;11.57;;;7.10;;
9140;SDS011;46330;50.822;7.126;2023-11-21T03:16:40;15.35;;;8.75;;
9140;SDS011;46330;50.822;7.126;2023-11-21T03:19:08;15.32;;;8.70;;
9140;SDS011;46330;50.822;7.126;2023-11-21T03:21:36;14.85;;;9.00;;
9140;SDS011;46330;50.822;7.126;2023-11-21T03:24:04;18.30;;;8.77;;
9140;SDS011;46330;50.822;7.126;2023-11-21T03:26:33;17.23;;;7.95;;
9140;SDS011;46330;50.822;7.126;2023-11-21T03:29:01;18.05;;;8.55;;
9140;SDS011;46330;50.822;7.126;2023-11-21T03:31:32;14.05;;;8.65;;
9140;SDS011;46330;50.822;7.126;2023-11-21T03:34:00;17.55;;;8.60;;
9140;SDS011;46330;50.822;7.126;2023-11-21T03:36:28;15.88;;;9.10;;
9140;SDS011;46330;50.822;7.126;2023-11-21T03:38:56;14.70;;;8.38;;
9140;SDS011;46330;50.822;7.126;2023-11-21T03:41:24;14.45;;;8.38;;
9140;SDS011;46330;50.822;7.126;2023-11-21T03:43:52;13.23;;;8.07;;
9140;SDS011;46330;50.822;7.126;2023-11-21T03:46:20;19.00;;;10.20;;
9140;SDS011;46330;50.822;7.126;2023-11-21T03:48:49;17.00;;;9.07;;
9140;SDS011;46330;50.822;7.126;2023-11-21T03:51:17;16.85;;;8.55;;
9140;SDS011;46330;50.822;7.126;2023-11-21T03:53:45;17.13;;;9.07;;
9140;SDS011;46330;50.822;7.126;2023-11-21T03:56:13;19.10;;;8.82;;
9140;SDS011;46330;50.822;7.126;2023-11-21T03:58:41;17.13;;;7.95;;
9140;SDS011;46330;50.822;7.126;2023-11-21T04:01:09;18.58;;;9.98;;
9140;SDS011;46330;50.822;7.126;2023-11-21T04:03:37;19.27;;;8.63;;
9140;SDS011;46330;50.822;7.126;2023-11-21T04:06:08;16.33;;;8.95;;
9140;SDS011;46330;50.822;7.126;2023-11-21T04:08:36;16.85;;;9.40;;
9140;SDS011;46330;50.822;7.126;2023-11-21T04:11:04;20.60;;;9.57;;
9140;SDS011;46330;50.822;7.126;2023-11-21T04:13:32;15.85;;;8.70;;
9140;SDS011;46330;50.822;7.126;2023-11-21T04:16:00;16.35;;;9.25;;
9140;SDS011;46330;50.822;7.126;2023-11-21T04:18:29;20.05;;;9.27;;
9140;SDS011;46330;50.822;7.126;2023-11-21T04:20:57;18.05;;;9.38;;
9140;SDS011;46330;50.822;7.126;2023-11-21T04:23:28;21.67;;;9.77;;
9140;SDS011;46330;50.822;7.126;2023-11-21T04:25:56;16.25;;;8.70;;
9140;SDS011;46330;50.822;7.126;2023-11-21T04:28:25;17.90;;;10.45;;
9140;SDS011;46330;50.822;7.126;2023-11-21T04:30:53;20.13;;;9.52;;
9140;SDS011;46330;50.822;7.126;2023-11-21T04:33:22;15.63;;;9.18;;
9140;SDS011;46330;50.822;7.126;2023-11-21T04:35:49;20.80;;;9.93;;
9140;SDS011;46330;50.822;7.126;2023-11-21T04:38:18;16.95;;;9.30;;
9140;SDS011;46330;50.822;7.126;2023-11-21T04:40:47;18.13;;;9.65;;
9140;SDS011;46330;50.822;7.126;2023-11-21T04:43:15;18.40;;;9.75;;
9140;SDS011;46330;50.822;7.126;2023-11-21T04:45:43;16.77;;;9.95;;
9140;SDS011;46330;50.822;7.126;2023-11-21T04:48:12;19.02;;;9.85;;
9140;SDS011;46330;50.822;7.126;2023-11-21T04:50:40;21.55;;;9.90;;
9140;SDS011;46330;50.822;7.126;2023-11-21T04:53:08;21.95;;;10.30;;
9140;SDS011;46330;50.822;7.126;2023-11-21T04:55:39;19.00;;;10.43;;
9140;SDS011;46330;50.822;7.126;2023-11-21T04:58:13;18.98;;;9.85;;
9140;SDS011;46330;50.822;7.126;2023-11-21T05:00:41;20.08;;;10.45;;
9140;SDS011;46330;50.822;7.126;2023-11-21T05:03:09;18.20;;;10.80;;
9140;SDS011;46330;50.822;7.126;2023-11-21T05:05:38;19.80;;;10.50;;
9140;SDS011;46330;50.822;7.126;2023-11-21T05:08:06;16.75;;;9.35;;
9140;SDS011;46330;50.822;7.126;2023-11-21T05:10:34;20.75;;;10.63;;
9140;SDS011;46330;50.822;7.126;2023-11-21T05:13:04;21.60;;;10.77;;
9140;SDS011;46330;50.822;7.126;2023-11-21T05:15:37;18.58;;;10.55;;
9140;SDS011;46330;50.822;7.126;2023-11-21T05:18:06;21.25;;;10.95;;
9140;SDS011;46330;50.822;7.126;2023-11-21T05:20:34;20.75;;;10.85;;
9140;SDS011;46330;50.822;7.126;2023-11-21T05:23:02;19.13;;;10.35;;
9140;SDS011;46330;50.822;7.126;2023-11-21T05:25:30;20.85;;;10.93;;
9140;SDS011;46330;50.822;7.126;2023-11-21T05:27:58;16.90;;;10.15;;
9140;SDS011;46330;50.822;7.126;2023-11-21T05:30:27;20.42;;;10.32;;
9140;SDS011;46330;50.822;7.126;2023-11-21T05:32:57;18.20;;;10.25;;
9140;SDS011;46330;50.822;7.126;2023-11-21T05:35:25;17.75;;;9.80;;
9140;SDS011;46330;50.822;7.126;2023-11-21T05:37:53;17.30;;;10.10;;
9140;SDS011;46330;50.822;7.126;2023-11-21T05:40:21;21.38;;;10.52;;
9140;SDS011;46330;50.822;7.126;2023-11-21T05:42:50;22.05;;;10.38;;
9140;SDS011;46330;50.822;7.126;2023-11-21T05:45:18;17.08;;;10.05;;
9140;SDS011;46330;50.822;7.126;2023-11-21T05:47:47;19.92;;;10.70;;
9140;SDS011;46330;50.822;7.126;2023-11-21T05:50:16;22.80;;;10.65;;
9140;SDS011;46330;50.822;7.126;2023-11-21T05:52:45;22.15;;;10.73;;
9140;SDS011;46330;50.822;7.126;2023-11-21T05:55:14;16.88;;;10.35;;
9140;SDS011;46330;50.822;7.126;2023-11-21T05:57:43;19.38;;;9.65;;
9140;SDS011;46330;50.822;7.126;2023-11-21T06:00:12;19.92;;;10.68;;
9140;SDS011;46330;50.822;7.126;2023-11-21T06:02:46;17.92;;;9.77;;
9140;SDS011;46330;50.822;7.126;2023-11-21T06:05:18;20.00;;;10.75;;
9140;SDS011;46330;50.822;7.126;2023-11-21T06:07:49;23.92;;;11.20;;
9140;SDS011;46330;50.822;7.126;2023-11-21T06:10:19;22.17;;;10.45;;
9140;SDS011;46330;50.822;7.126;2023-11-21T06:12:47;19.70;;;10.13;;
9140;SDS011;46330;50.822;7.126;2023-11-21T06:15:23;17.10;;;10.80;;
9140;SDS011;46330;50.822;7.126;2023-11-21T06:17:51;18.88;;;9.82;;
9140;SDS011;46330;50.822;7.126;2023-11-21T06:20:20;25.13;;;10.77;;
9140;SDS011;46330;50.822;7.126;2023-11-21T06:22:49;21.55;;;10.45;;
9140;SDS011;46330;50.822;7.126;2023-11-21T06:25:18;18.65;;;10.23;;
9140;SDS011;46330;50.822;7.126;2023-11-21T06:27:47;19.30;;;10.95;;
9140;SDS011;46330;50.822;7.126;2023-11-21T06:30:15;22.73;;;11.38;;
9140;SDS011;46330;50.822;7.126;2023-11-21T06:32:47;20.13;;;10.90;;
9140;SDS011;46330;50.822;7.126;2023-11-21T06:35:16;21.65;;;11.27;;
9140;SDS011;46330;50.822;7.126;2023-11-21T06:37:44;22.95;;;11.77;;
9140;SDS011;46330;50.822;7.126;2023-11-21T06:40:16;22.45;;;11.32;;
9140;SDS011;46330;50.822;7.126;2023-11-21T06:42:46;27.23;;;12.23;;
9140;SDS011;46330;50.822;7.126;2023-11-21T06:45:15;21.85;;;11.18;;
9140;SDS011;46330;50.822;7.126;2023-11-21T06:47:43;23.85;;;11.88;;
9140;SDS011;46330;50.822;7.126;2023-11-21T06:50:13;27.10;;;13.40;;
9140;SDS011;46330;50.822;7.126;2023-11-21T06:52:41;24.50;;;12.35;;
9140;SDS011;46330;50.822;7.126;2023-11-21T06:55:09;24.70;;;12.38;;
9140;SDS011;46330;50.822;7.126;2023-11-21T06:57:37;27.50;;;13.05;;
9140;SDS011;46330;50.822;7.126;2023-11-21T07:00:06;26.30;;;13.68;;
9140;SDS011;46330;50.822;7.126;2023-11-21T07:02:36;25.20;;;11.88;;
9140;SDS011;46330;50.822;7.126;2023-11-21T07:05:05;26.45;;;12.15;;
9140;SDS011;46330;50.822;7.126;2023-11-21T07:07:35;28.55;;;12.40;;
9140;SDS011;46330;50.822;7.126;2023-11-21T07:10:04;21.35;;;11.48;;
9140;SDS011;46330;50.822;7.126;2023-11-21T07:12:33;22.65;;;12.15;;
9140;SDS011;46330;50.822;7.126;2023-11-21T07:15:01;21.73;;;11.23;;
9140;SDS011;46330;50.822;7.126;2023-11-21T07:17:31;24.88;;;11.80;;
9140;SDS011;46330;50.822;7.126;2023-11-21T07:20:01;25.30;;;12.75;;
9140;SDS011;46330;50.822;7.126;2023-11-21T07:22:29;24.00;;;12.80;;
9140;SDS011;46330;50.822;7.126;2023-11-21T07:24:58;20.35;;;11.90;;
9140;SDS011;46330;50.822;7.126;2023-11-21T07:27:26;26.40;;;13.02;;
9140;SDS011;46330;50.822;7.126;2023-11-21T07:29:55;23.50;;;12.57;;
9140;SDS011;46330;50.822;7.126;2023-11-21T07:32:24;31.60;;;14.18;;
9140;SDS011;46330;50.822;7.126;2023-11-21T07:34:52;29.55;;;13.65;;
9140;SDS011;46330;50.822;7.126;2023-11-21T07:37:20;29.38;;;13.88;;
9140;SDS011;46330;50.822;7.126;2023-11-21T07:39:48;30.10;;;14.35;;
9140;SDS011;46330;50.822;7.126;2023-11-21T07:42:17;30.17;;;14.70;;
9140;SDS011;46330;50.822;7.126;2023-11-21T07:44:48;28.20;;;14.00;;
9140;SDS011;46330;50.822;7.126;2023-11-21T07:47:16;33.30;;;14.40;;
9140;SDS011;46330;50.822;7.126;2023-11-21T07:49:44;25.42;;;13.27;;
9140;SDS011;46330;50.822;7.126;2023-11-21T07:52:13;29.30;;;14.32;;
9140;SDS011;46330;50.822;7.126;2023-11-21T07:54:42;31.23;;;14.48;;
9140;SDS011;46330;50.822;7.126;2023-11-21T07:57:10;32.67;;;13.55;;
9140;SDS011;46330;50.822;7.126;2023-11-21T07:59:41;30.52;;;13.38;;
9140;SDS011;46330;50.822;7.126;2023-11-21T08:02:09;29.55;;;14.45;;
9140;SDS011;46330;50.822;7.126;2023-11-21T08:04:37;25.77;;;13.55;;
9140;SDS011;46330;50.822;7.126;2023-11-21T08:07:05;29.55;;;13.10;;
9140;SDS011;46330;50.822;7.126;2023-11-21T08:09:33;27.70;;;13.18;;
9140;SDS011;46330;50.822;7.126;2023-11-21T08:12:01;25.92;;;12.93;;
9140;SDS011;46330;50.822;7.126;2023-11-21T08:14:29;28.00;;;13.45;;
9140;SDS011;46330;50.822;7.126;2023-11-21T08:16:58;28.33;;;14.23;;
9140;SDS011;46330;50.822;7.126;2023-11-21T08:19:27;31.40;;;13.50;;
9140;SDS011;46330;50.822;7.126;2023-11-21T08:21:55;31.92;;;13.48;;
9140;SDS011;46330;50.822;7.126;2023-11-21T08:24:22;31.67;;;14.02;;
9140;SDS011;46330;50.822;7.126;2023-11-21T08:26:50;25.95;;;13.13;;
9140;SDS011;46330;50.822;7.126;2023-11-21T08:29:18;25.25;;;13.43;;
9140;SDS011;46330;50.822;7.126;2023-11-21T08:31:46;31.00;;;14.05;;
9140;SDS011;46330;50.822;7.126;2023-11-21T08:34:16;28.70;;;14.23;;
9140;SDS011;46330;50.822;7.126;2023-11-21T08:36:45;27.63;;;13.02;;
9140;SDS011;46330;50.822;7.126;2023-11-21T08:39:13;30.73;;;14.45;;
9140;SDS011;46330;50.822;7.126;2023-11-21T08:41:42;28.65;;;13.85;;
9140;SDS011;46330;50.822;7.126;2023-11-21T08:44:10;27.77;;;14.43;;
9140;SDS011;46330;50.822;7.126;2023-11-21T08:46:38;30.10;;;13.85;;
9140;SDS011;46330;50.822;7.126;2023-11-21T08:49:08;26.33;;;13.52;;
9140;SDS011;46330;50.822;7.126;2023-11-21T08:51:38;29.70;;;14.43;;
9140;SDS011;46330;50.822;7.126;2023-11-21T08:54:06;30.13;;;14.75;;
9140;SDS011;46330;50.822;7.126;2023-11-21T08:56:34;24.95;;;14.13;;
9140;SDS011;46330;50.822;7.126;2023-11-21T08:59:02;27.45;;;14.38;;
9140;SDS011;46330;50.822;7.126;2023-11-21T09:01:31;31.67;;;14.48;;
9140;SDS011;46330;50.822;7.126;2023-11-21T09:03:59;26.30;;;14.00;;
9140;SDS011;46330;50.822;7.126;2023-11-21T09:06:28;26.73;;;13.38;;
9140;SDS011;46330;50.822;7.126;2023-11-21T09:08:58;27.58;;;13.82;;
9140;SDS011;46330;50.822;7.126;2023-11-21T09:11:26;28.70;;;14.00;;
9140;SDS011;46330;50.822;7.126;2023-11-21T09:13:59;28.95;;;14.60;;
9140;SDS011;46330;50.822;7.126;2023-11-21T09:16:28;31.92;;;15.32;;
9140;SDS011;46330;50.822;7.126;2023-11-21T09:18:56;26.40;;;14.45;;
9140;SDS011;46330;50.822;7.126;2023-11-21T09:21:25;28.10;;;14.70;;
9140;SDS011;46330;50.822;7.126;2023-11-21T09:23:54;29.92;;;14.80;;
9140;SDS011;46330;50.822;7.126;2023-11-21T09:26:23;29.08;;;15.02;;
9140;SDS011;46330;50.822;7.126;2023-11-21T09:28:51;29.85;;;15.05;;
9140;SDS011;46330;50.822;7.126;2023-11-21T09:31:19;33.45;;;14.80;;
9140;SDS011;46330;50.822;7.126;2023-11-21T09:33:49;37.50;;;15.13;;
9140;SDS011;46330;50.822;7.126;2023-11-21T09:36:17;32.03;;;14.80;;
9140;SDS011;46330;50.822;7.126;2023-11-21T09:38:45;34.25;;;15.02;;
9140;SDS011;46330;50.822;7.126;2023-11-21T09:41:19;30.73;;;15.70;;
9140;SDS011;46330;50.822;7.126;2023-11-21T09:43:52;28.30;;;14.77;;
9140;SDS011;46330;50.822;7.126;2023-11-21T09:46:26;28.05;;;14.02;;
9140;SDS011;46330;50.822;7.126;2023-11-21T09:48:56;28.33;;;14.10;;
9140;SDS011;46330;50.822;7.126;2023-11-21T09:51:27;30.05;;;14.27;;
9140;SDS011;46330;50.822;7.126;2023-11-21T09:53:59;28.15;;;14.52;;
9140;SDS011;46330;50.822;7.126;2023-11-21T09:56:32;31.02;;;14.32;;
9140;SDS011;46330;50.822;7.126;2023-11-21T09:59:03;28.48;;;14.60;;
9140;SDS011;46330;50.822;7.126;2023-11-21T10:01:33;29.48;;;14.55;;
9140;SDS011;46330;50.822;7.126;2023-11-21T10:04:04;29.58;;;14.23;;
9140;SDS011;46330;50.822;7.126;2023-11-21T10:06:38;33.92;;;15.07;;
9140;SDS011;46330;50.822;7.126;2023-11-21T10:09:08;31.52;;;15.00;;
9140;SDS011;46330;50.822;7.126;2023-11-21T10:11:39;30.27;;;15.32;;
9140;SDS011;46330;50.822;7.126;2023-11-21T10:14:10;25.85;;;15.20;;
9140;SDS011;46330;50.822;7.126;2023-11-21T10:16:41;30.48;;;15.90;;
9140;SDS011;46330;50.822;7.126;2023-11-21T10:19:13;34.42;;;16.88;;
9140;SDS011;46330;50.822;7.126;2023-11-21T10:21:42;39.85;;;16.67;;
9140;SDS011;46330;50.822;7.126;2023-11-21T10:24:10;35.15;;;16.40;;
9140;SDS011;46330;50.822;7.126;2023-11-21T10:26:39;34.47;;;17.40;;
9140;SDS011;46330;50.822;7.126;2023-11-21T10:29:20;31.13;;;16.55;;
9140;SDS011;46330;50.822;7.126;2023-11-21T10:31:49;35.17;;;17.15;;
9140;SDS011;46330;50.822;7.126;2023-11-21T10:34:19;41.03;;;17.58;;
9140;SDS011;46330;50.822;7.126;2023-11-21T10:36:48;29.52;;;16.83;;
9140;SDS011;46330;50.822;7.126;2023-11-21T10:39:16;36.58;;;18.75;;
9140;SDS011;46330;50.822;7.126;2023-11-21T10:41:45;34.92;;;17.10;;
9140;SDS011;46330;50.822;7.126;2023-11-21T10:44:15;43.00;;;18.40;;
9140;SDS011;46330;50.822;7.126;2023-11-21T10:46:51;32.55;;;16.58;;
9140;SDS011;46330;50.822;7.126;2023-11-21T10:49:23;36.40;;;16.60;;
9140;SDS011;46330;50.822;7.126;2023-11-21T10:51:52;37.95;;;16.58;;
9140;SDS011;46330;50.822;7.126;2023-11-21T10:54:22;36.78;;;16.30;;
9140;SDS011;46330;50.822;7.126;2023-11-21T10:56:53;32.80;;;16.13;;
9140;SDS011;46330;50.822;7.126;2023-11-21T10:59:26;34.25;;;16.77;;
9140;SDS011;46330;50.822;7.126;2023-11-21T11:02:00;36.88;;;17.27;;
9140;SDS011;46330;50.822;7.126;2023-11-21T11:04:31;38.47;;;16.33;;
9140;SDS011;46330;50.822;7.126;2023-11-21T11:07:01;37.50;;;17.77;;
9140;SDS011;46330;50.822;7.126;2023-11-21T11:09:32;41.65;;;17.85;;
9140;SDS011;46330;50.822;7.126;2023-11-21T11:12:01;35.97;;;16.70;;
9140;SDS011;46330;50.822;7.126;2023-11-21T11:14:31;35.72;;;16.95;;
9140;SDS011;46330;50.822;7.126;2023-11-21T11:17:01;35.95;;;16.67;;
9140;SDS011;46330;50.822;7.126;2023-11-21T11:19:32;34.20;;;16.13;;
9140;SDS011;46330;50.822;7.126;2023-11-21T11:22:04;34.72;;;16.00;;
9140;SDS011;46330;50.822;7.126;2023-11-21T11:24:52;35.50;;;16.08;;
9140;SDS011;46330;50.822;7.126;2023-11-21T11:27:40;33.92;;;15.90;;
9140;SDS011;46330;50.822;7.126;2023-11-21T11:30:25;32.20;;;15.15;;
9140;SDS011;46330;50.822;7.126;2023-11-21T11:33:11;33.10;;;15.32;;
9140;SDS011;46330;50.822;7.126;2023-11-21T11:35:54;31.25;;;15.90;;
9140;SDS011;46330;50.822;7.126;2023-11-21T11:38:30;33.45;;;15.82;;
9140;SDS011;46330;50.822;7.126;2023-11-21T11:41:01;31.95;;;14.77;;
9140;SDS011;46330;50.822;7.126;2023-11-21T11:43:30;34.40;;;15.52;;
9140;SDS011;46330;50.822;7.126;2023-11-21T11:46:11;32.67;;;16.08;;
9140;SDS011;46330;50.822;7.126;2023-11-21T11:48:42;34.38;;;16.92;;
9140;SDS011;46330;50.822;7.126;2023-11-21T11:51:12;34.58;;;17.33;;
9140;SDS011;46330;50.822;7.126;2023-11-21T11:53:43;37.00;;;16.75;;
9140;SDS011;46330;50.822;7.126;2023-11-21T11:56:21;31.27;;;15.93;;
9140;SDS011;46330;50.822;7.126;2023-11-21T11:58:52;35.00;;;15.88;;
9140;SDS011;46330;50.822;7.126;2023-11-21T12:01:23;31.83;;;16.05;;
9140;SDS011;46330;50.822;7.126;2023-11-21T12:07:01;35.17;;;16.05;;
9140;SDS011;46330;50.822;7.126;2023-11-21T12:09:30;32.53;;;16.33;;
9140;SDS011;46330;50.822;7.126;2023-11-21T12:11:59;32.65;;;17.45;;
9140;SDS011;46330;50.822;7.126;2023-11-21T12:14:28;36.03;;;17.13;;
9140;SDS011;46330;50.822;7.126;2023-11-21T12:16:56;31.13;;;16.70;;
9140;SDS011;46330;50.822;7.126;2023-11-21T12:19:27;34.00;;;16.58;;
9140;SDS011;46330;50.822;7.126;2023-11-21T12:21:55;34.40;;;16.42;;
9140;SDS011;46330;50.822;7.126;2023-11-21T12:24:23;35.50;;;16.77;;
9140;SDS011;46330;50.822;7.126;2023-11-21T12:26:52;37.20;;;17.98;;
9140;SDS011;46330;50.822;7.126;2023-11-21T12:29:20;37.28;;;18.08;;
9140;SDS011;46330;50.822;7.126;2023-11-21T12:31:48;43.58;;;18.30;;
9140;SDS011;46330;50.822;7.126;2023-11-21T12:34:17;41.17;;;18.55;;
9140;SDS011;46330;50.822;7.126;2023-11-21T12:36:46;38.33;;;18.33;;
9140;SDS011;46330;50.822;7.126;2023-11-21T12:39:15;37.33;;;18.30;;
9140;SDS011;46330;50.822;7.126;2023-11-21T12:41:43;35.05;;;17.70;;
9140;SDS011;46330;50.822;7.126;2023-11-21T12:44:12;34.17;;;16.65;;
9140;SDS011;46330;50.822;7.126;2023-11-21T12:46:42;39.35;;;18.08;;
9140;SDS011;46330;50.822;7.126;2023-11-21T12:49:12;40.08;;;16.85;;
9140;SDS011;46330;50.822;7.126;2023-11-21T12:51:46;37.40;;;17.67;;
9140;SDS011;46330;50.822;7.126;2023-11-21T12:54:14;33.90;;;16.67;;
9140;SDS011;46330;50.822;7.126;2023-11-21T12:56:44;36.72;;;17.83;;
9140;SDS011;46330;50.822;7.126;2023-11-21T12:59:15;38.90;;;18.10;;
9140;SDS011;46330;50.822;7.126;2023-11-21T13:01:45;35.95;;;16.67;;
9140;SDS011;46330;50.822;7.126;2023-11-21T13:04:13;34.88;;;16.92;;
9140;SDS011;46330;50.822;7.126;2023-11-21T13:06:41;37.50;;;17.38;;
9140;SDS011;46330;50.822;7.126;2023-11-21T13:09:11;37.72;;;17.98;;
9140;SDS011;46330;50.822;7.126;2023-11-21T13:11:44;36.85;;;17.70;;
9140;SDS011;46330;50.822;7.126;2023-11-21T13:14:12;32.08;;;17.33;;
9140;SDS011;46330;50.822;7.126;2023-11-21T13:16:41;35.53;;;17.25;;
9140;SDS011;46330;50.822;7.126;2023-11-21T13:19:13;36.05;;;17.15;;
9140;SDS011;46330;50.822;7.126;2023-11-21T13:21:41;35.88;;;17.27;;
9140;SDS011;46330;50.822;7.126;2023-11-21T13:24:08;35.13;;;16.45;;
9140;SDS011;46330;50.822;7.126;2023-11-21T13:26:38;37.22;;;17.13;;
9140;SDS011;46330;50.822;7.126;2023-11-21T13:29:07;31.65;;;15.80;;
9140;SDS011;46330;50.822;7.126;2023-11-21T13:31:35;34.10;;;17.60;;
9140;SDS011;46330;50.822;7.126;2023-11-21T13:34:05;36.20;;;15.60;;
9140;SDS011;46330;50.822;7.126;2023-11-21T13:36:35;32.17;;;16.35;;
9140;SDS011;46330;50.822;7.126;2023-11-21T13:39:03;35.47;;;14.95;;
9140;SDS011;46330;50.822;7.126;2023-11-21T13:41:36;31.70;;;14.82;;
9140;SDS011;46330;50.822;7.126;2023-11-21T13:44:05;28.55;;;14.07;;
9140;SDS011;46330;50.822;7.126;2023-11-21T13:46:43;33.13;;;14.77;;
9140;SDS011;46330;50.822;7.126;2023-11-21T13:49:12;31.50;;;14.63;;
9140;SDS011;46330;50.822;7.126;2023-11-21T13:51:42;30.92;;;14.27;;
9140;SDS011;46330;50.822;7.126;2023-11-21T13:54:12;28.27;;;14.07;;
9140;SDS011;46330;50.822;7.126;2023-11-21T13:56:42;32.65;;;14.52;;
9140;SDS011;46330;50.822;7.126;2023-11-21T13:59:12;30.05;;;14.55;;
9140;SDS011;46330;50.822;7.126;2023-11-21T14:01:47;27.35;;;13.93;;
9140;SDS011;46330;50.822;7.126;2023-11-21T14:04:24;31.48;;;13.50;;
9140;SDS011;46330;50.822;7.126;2023-11-21T14:07:13;29.48;;;14.15;;
9140;SDS011;46330;50.822;7.126;2023-11-21T14:09:58;28.20;;;13.10;;
9140;SDS011;46330;50.822;7.126;2023-11-21T14:12:28;29.23;;;13.48;;
9140;SDS011;46330;50.822;7.126;2023-11-21T14:15:04;28.20;;;13.48;;
9140;SDS011;46330;50.822;7.126;2023-11-21T14:17:36;31.45;;;13.73;;
9140;SDS011;46330;50.822;7.126;2023-11-21T14:20:06;33.17;;;14.20;;
9140;SDS011;46330;50.822;7.126;2023-11-21T14:22:42;30.08;;;14.25;;
9140;SDS011;46330;50.822;7.126;2023-11-21T14:25:10;31.38;;;13.43;;
9140;SDS011;46330;50.822;7.126;2023-11-21T14:27:42;31.90;;;13.20;;
9140;SDS011;46330;50.822;7.126;2023-11-21T14:30:10;28.27;;;13.38;;
9140;SDS011;46330;50.822;7.126;2023-11-21T14:32:40;30.85;;;13.23;;
9140;SDS011;46330;50.822;7.126;2023-11-21T14:35:08;32.97;;;13.23;;
9140;SDS011;46330;50.822;7.126;2023-11-21T14:37:37;36.75;;;14.40;;
9140;SDS011;46330;50.822;7.126;2023-11-21T14:40:06;34.58;;;14.68;;
9140;SDS011;46330;50.822;7.126;2023-11-21T14:42:35;33.00;;;14.60;;
9140;SDS011;46330;50.822;7.126;2023-11-21T14:45:07;33.40;;;13.43;;
9140;SDS011;46330;50.822;7.126;2023-11-21T14:47:38;37.92;;;14.07;;
9140;SDS011;46330;50.822;7.126;2023-11-21T14:50:11;36.63;;;14.05;;
9140;SDS011;46330;50.822;7.126;2023-11-21T14:52:53;35.08;;;13.68;;
9140;SDS011;46330;50.822;7.126;2023-11-21T14:55:26;31.77;;;14.10;;
9140;SDS011;46330;50.822;7.126;2023-11-21T14:57:58;34.25;;;15.15;;